Time;durP1;ratioP1;P1;durP2;ratioP2;P2;SDS_P1;SDS_P2;PMS_P1;PMS_P2;Temp;Humidity;BMP_temperature;BMP_pressure;BME280_temperature;BME280_humidity;BME280_pressure;Samples;Min_cycle;Max_cycle;Signal;HPM_P1;HPM_P2
2023/01/05 10:10:40;;;;;;;7.63;1.63;;;;;;;12.22;83.58;99317.53;5171737;27;20544;-83
2023/01/05 10:13:31;;;;;;;3.97;1.70;;;;;;;13.42;77.08;99362.97;5153668;27;39936;-82
2023/01/05 10:16:19;;;;;;;5.87;1.70;;;;;;;13.96;72.32;99362.91;5153032;27;40860;-84
2023/01/05 10:18:47;;;;;;;8.00;1.70;;;;;;;14.42;68.61;99333.09;5117222;27;43099;-83
2023/01/05 10:24:38;;;;;;;6.27;1.83;;;;;;;14.46;67.60;99388.75;5091552;28;41365;-83
2023/01/05 10:30:54;;;;;;;11.47;2.20;;;;;;;14.05;68.57;99383.56;5091248;28;42513;-85
2023/01/05 10:33:39;;;;;;;8.53;1.83;;;;;;;14.04;68.19;99365.88;5090801;28;41391;-85
2023/01/05 10:36:19;;;;;;;6.47;1.70;;;;;;;14.20;68.33;99379.84;5075075;28;39817;-83
2023/01/05 10:38:55;;;;;;;5.70;2.23;;;;;;;14.16;68.17;99380.16;5091136;28;40600;-82
2023/01/05 10:41:31;;;;;;;5.97;1.80;;;;;;;13.94;68.24;99355.00;5091432;28;42949;-83
2023/01/05 10:44:47;;;;;;;12.73;2.20;;;;;;;13.63;68.83;99336.72;5091513;28;41300;-84
2023/01/05 10:47:21;;;;;;;7.80;1.90;;;;;;;13.77;69.09;99367.75;5088020;28;38984;-85
2023/01/05 10:49:56;;;;;;;4.53;1.80;;;;;;;13.97;68.56;99376.06;5091596;28;40831;-85
2023/01/05 10:52:35;;;;;;;7.30;1.40;;;;;;;15.23;65.38;99371.59;5091333;28;43102;-86
2023/01/05 10:55:18;;;;;;;5.70;1.70;;;;;;;15.34;62.96;99413.50;5091267;28;42448;-83
2023/01/05 10:57:50;;;;;;;7.87;2.53;;;;;;;15.44;63.22;99403.88;5108392;28;39432;-84
2023/01/05 11:00:22;;;;;;;8.50;1.70;;;;;;;17.17;58.65;99405.63;5090829;28;41559;-83
2023/01/05 11:03:01;;;;;;;6.27;1.30;;;;;;;18.72;53.91;99419.34;5090867;28;42031;-83
2023/01/05 11:05:34;;;;;;;8.80;2.40;;;;;;;18.53;52.33;99438.00;5091053;28;42856;-84
2023/01/05 11:08:14;;;;;;;7.43;2.00;;;;;;;18.52;52.81;99441.66;5091291;28;39712;-83
2023/01/05 11:10:58;;;;;;;6.10;2.30;;;;;;;17.90;52.75;99434.44;5090697;28;41773;-83
2023/01/05 11:13:35;;;;;;;7.57;1.90;;;;;;;17.15;54.00;99423.63;5090564;28;42278;-84
2023/01/05 11:16:10;;;;;;;5.13;1.47;;;;;;;16.61;55.58;99413.63;5090919;28;43648;-81
2023/01/05 11:18:51;;;;;;;3.23;1.40;;;;;;;15.99;57.50;99402.44;5090636;28;39275;-84
2023/01/05 11:21:27;;;;;;;5.23;1.50;;;;;;;15.82;58.41;99397.53;5077573;28;40310;-83
2023/01/05 11:23:57;;;;;;;5.20;1.23;;;;;;;15.87;58.91;99414.91;5077354;28;42851;-85
2023/01/05 11:26:32;;;;;;;6.07;1.80;;;;;;;16.55;57.37;99392.72;5077303;28;42152;-84
2023/01/05 11:29:10;;;;;;;5.20;1.67;;;;;;;16.48;56.56;99423.56;5077213;28;38985;-85
2023/01/05 11:31:42;;;;;;;5.50;1.73;;;;;;;16.02;58.00;99384.34;5076618;28;40842;-84
2023/01/05 11:34:22;;;;;;;6.00;1.50;;;;;;;15.99;59.44;99416.66;5091209;28;42791;-81
2023/01/05 11:37:20;;;;;;;4.73;1.67;;;;;;;15.41;60.31;99372.06;5076877;28;41326;-85
2023/01/05 11:39:53;;;;;;;5.77;1.87;;;;;;;15.45;60.54;99408.25;5076567;28;38606;-86
2023/01/05 11:42:42;;;;;;;4.97;1.60;;;;;;;14.97;61.40;99375.31;5076956;28;40381;-86
2023/01/05 11:45:48;;;;;;;9.43;1.90;;;;;;;14.71;63.66;99362.03;5059610;28;43098;-85
2023/01/05 11:48:36;;;;;;;3.70;1.40;;;;;;;14.91;64.18;99405.09;5076527;28;42588;-87
2023/01/05 11:51:05;;;;;;;7.30;2.33;;;;;;;14.59;64.81;99370.03;5076586;28;40948;-86
2023/01/05 11:53:38;;;;;;;6.40;1.90;;;;;;;14.70;64.43;99405.66;5075935;28;41841;-87
2023/01/05 11:59:30;;;;;;;5.80;1.97;;;;;;;14.20;65.30;99363.88;5090990;28;42462;-86
2023/01/05 12:02:44;;;;;;;8.07;2.20;;;;;;;14.19;65.25;99363.97;5058990;28;40121;-86
2023/01/05 12:05:45;;;;;;;9.63;2.07;;;;;;;14.25;65.33;99384.84;5039647;28;41319;-85
2023/01/05 12:18:32;;;;;;;7.97;2.13;;;;;;;15.01;63.29;99398.13;5114648;27;43407;-86
2023/01/05 12:21:13;;;;;;;9.63;2.30;;;;;;;15.41;60.56;99383.59;5131983;27;42614;-89
2023/01/05 12:24:13;;;;;;;7.50;2.17;;;;;;;15.15;60.57;99387.31;5117506;27;41357;-85
2023/01/05 12:27:26;;;;;;;5.37;1.63;;;;;;;15.07;60.81;99421.72;5116858;27;38649;-88
2023/01/05 12:33:59;;;;;;;8.33;1.90;;;;;;;16.02;58.78;99443.13;5124631;27;43103;-85
2023/01/05 12:36:55;;;;;;;7.50;2.63;;;;;;;15.80;58.79;99394.97;5075960;28;41232;-86
2023/01/05 12:40:26;;;;;;;5.03;2.03;;;;;;;16.41;57.89;99433.06;5077573;28;40321;-86
2023/01/05 12:43:05;;;;;;;9.37;2.47;;;;;;;17.29;54.97;99393.91;5079889;28;40620;-85
2023/01/05 13:02:13;;;;;;;6.00;2.00;;;;;;;16.68;54.83;99409.53;5098942;27;41659;-86
2023/01/05 13:11:58;;;;;;;5.40;2.00;;;;;;;18.46;50.69;99448.38;5132254;27;43441;-86
2023/01/05 13:14:55;;;;;;;9.57;2.03;;;;;;;18.43;49.85;99477.28;5098768;27;41320;-86
2023/01/05 13:18:09;;;;;;;6.67;2.20;;;;;;;17.99;51.46;99468.50;5098253;27;38796;-86
2023/01/05 13:20:43;;;;;;;10.90;2.40;;;;;;;17.33;51.50;99415.91;5094762;27;40775;-86
2023/01/05 13:23:18;;;;;;;4.93;1.70;;;;;;;17.14;52.58;99425.44;5099140;27;41854;-87
2023/01/05 13:26:10;;;;;;;7.43;2.30;;;;;;;16.77;53.19;99424.84;5098933;27;41186;-85
2023/01/05 13:28:38;;;;;;;7.60;2.40;;;;;;;16.53;54.18;99456.16;5098740;27;38671;-85
2023/01/05 13:32:00;;;;;;;7.10;2.30;;;;;;;16.19;55.14;99439.19;5098840;27;40964;-86
2023/01/05 13:38:04;;;;;;;8.17;2.20;;;;;;;15.83;56.09;99442.78;5131330;27;42667;-85
2023/01/05 13:48:41;;;;;;;8.47;2.10;;;;;;;15.35;57.71;99448.09;5020470;27;41894;-87
2023/01/05 13:51:28;;;;;;;7.47;1.83;;;;;;;15.06;57.76;99412.00;5036501;28;41610;-85
2023/01/05 13:54:04;;;;;;;9.60;2.23;;;;;;;15.16;57.98;99447.72;5109288;27;39858;-85
2023/01/05 14:00:21;;;;;;;10.60;2.80;;;;;;;14.93;58.19;99451.19;5118166;27;41995;-86
2023/01/05 14:06:56;;;;;;;11.07;2.43;;;;;;;14.62;58.71;99421.34;5118108;27;39266;-86
2023/01/05 14:09:37;;;;;;;10.60;2.77;;;;;;;14.50;58.82;99414.19;5117917;27;41334;-85
2023/01/05 14:12:48;;;;;;;5.23;2.50;;;;;;;14.53;59.11;99415.78;5118343;27;42342;-85
2023/01/05 14:15:58;;;;;;;8.50;2.90;;;;;;;14.71;59.03;99450.00;5118656;27;40943;-86
2023/01/05 14:18:58;;;;;;;10.80;3.53;;;;;;;14.68;59.13;99462.72;5099492;27;38773;-85
2023/01/05 14:21:59;;;;;;;8.40;2.30;;;;;;;14.21;58.94;99388.69;5113213;27;40830;-85
2023/01/05 14:24:48;;;;;;;8.37;2.43;;;;;;;14.57;58.49;99459.94;5114917;27;42454;-86
2023/01/05 14:27:17;;;;;;;6.93;2.70;;;;;;;14.22;58.80;99414.34;5115050;27;42192;-86
2023/01/05 14:30:27;;;;;;;6.10;2.33;;;;;;;14.29;59.11;99423.66;5115781;27;40023;-85
2023/01/05 14:33:04;;;;;;;8.73;2.07;;;;;;;14.47;58.85;99474.84;5113761;27;41953;-85
2023/01/05 14:35:48;;;;;;;8.70;2.40;;;;;;;14.44;59.24;99478.59;5098694;27;43667;-86
2023/01/05 14:38:36;;;;;;;8.07;2.70;;;;;;;14.26;59.27;99456.66;5115363;27;41318;-87
2023/01/05 14:41:37;;;;;;;6.60;1.80;;;;;;;14.40;59.32;99476.22;5112299;27;39519;-86
2023/01/05 14:44:27;;;;;;;9.83;2.43;;;;;;;14.16;59.73;99450.28;5115152;27;40575;-86
2023/01/05 14:47:16;;;;;;;9.20;2.13;;;;;;;14.26;59.71;99482.47;5114513;27;42764;-87
2023/01/05 14:50:11;;;;;;;9.53;2.27;;;;;;;14.00;60.21;99465.56;5114799;27;42293;-86
2023/01/05 14:53:11;;;;;;;8.83;2.20;;;;;;;13.91;60.43;99467.03;5114999;27;39391;-84
2023/01/05 14:55:41;;;;;;;13.03;2.50;;;;;;;13.93;60.69;99494.44;5116856;27;41824;-86
2023/01/05 14:58:44;;;;;;;9.70;2.37;;;;;;;13.83;61.39;99497.78;5118413;27;43275;-86
2023/01/05 15:01:33;;;;;;;10.20;2.07;;;;;;;13.55;61.50;99475.63;5101223;27;42437;-86
2023/01/05 15:04:11;;;;;;;6.20;2.30;;;;;;;13.49;61.59;99476.00;5118670;27;40726;-85
2023/01/05 15:10:32;;;;;;;11.20;2.43;;;;;;;13.28;61.86;99461.44;5058199;28;42876;-85
2023/01/05 15:13:33;;;;;;;7.63;2.27;;;;;;;13.12;62.08;99440.25;5059323;28;41470;-86
2023/01/05 15:22:43;;;;;;;6.63;2.20;;;;;;;13.29;62.80;99495.94;5139940;27;43357;-86
2023/01/05 15:25:52;;;;;;;11.17;2.60;;;;;;;13.10;62.71;99463.44;5121651;27;42800;-86
2023/01/05 15:29:12;;;;;;;7.63;2.20;;;;;;;13.22;63.14;99494.63;5120785;27;40458;-86
2023/01/05 15:35:07;;;;;;;8.07;2.83;;;;;;;13.07;63.49;99506.19;5120320;27;42014;-87
2023/01/05 15:38:18;;;;;;;5.73;2.13;;;;;;;12.77;63.71;99470.84;5120465;27;41069;-87
2023/01/05 15:41:21;;;;;;;9.10;2.57;;;;;;;12.71;63.83;99471.25;5120433;27;39064;-87
2023/01/05 15:44:33;;;;;;;5.57;2.03;;;;;;;12.88;64.25;99502.94;5120672;27;41764;-86
2023/01/05 15:47:02;;;;;;;7.43;2.57;;;;;;;12.84;64.57;99514.72;5120798;27;41948;-88
2023/01/05 15:49:33;;;;;;;8.93;2.27;;;;;;;12.58;64.71;99482.63;5120559;27;42220;-85
2023/01/05 15:59:58;;;;;;;7.10;2.13;;;;;;;12.49;65.58;99499.09;5169592;27;43609;-85
2023/01/05 16:02:48;;;;;;;8.57;2.30;;;;;;;12.42;65.57;99500.41;5136843;27;42977;-84
2023/01/05 16:05:34;;;;;;;7.13;2.00;;;;;;;12.58;66.10;99529.59;5137586;27;38825;-86
2023/01/05 16:08:22;;;;;;;7.53;2.37;;;;;;;12.32;66.34;99501.91;5134888;27;40911;-87
2023/01/05 16:13:58;;;;;;;6.83;2.13;;;;;;;12.17;66.93;99497.50;5120602;27;40961;-87
2023/01/05 16:19:09;;;;;;;5.47;2.30;;;;;;;12.14;68.11;99524.22;5154267;27;42889;-86
2023/01/05 16:22:16;;;;;;;8.17;2.50;;;;;;;12.05;68.17;99532.72;5120401;27;43013;-86
2023/01/05 16:25:25;;;;;;;10.10;2.30;;;;;;;11.74;69.09;99496.47;5120059;27;41359;-86
2023/01/05 16:28:16;;;;;;;8.87;2.10;;;;;;;11.94;69.07;99540.47;5120213;27;39244;-86
2023/01/05 16:31:12;;;;;;;7.70;2.53;;;;;;;11.75;69.35;99504.34;5120286;27;40506;-86
2023/01/05 16:33:39;;;;;;;8.47;1.90;;;;;;;11.82;69.50;99529.59;5119764;27;41877;-86
2023/01/05 16:48:57;;;;;;;9.30;2.20;;;;;;;11.57;71.14;99539.00;5152929;27;43749;-84
2023/01/05 16:51:45;;;;;;;5.03;2.00;;;;;;;11.51;71.43;99548.13;5110324;27;41845;-86
2023/01/05 16:57:50;;;;;;;5.97;2.17;;;;;;;11.34;72.09;99537.63;5114847;27;43670;-86
2023/01/05 17:00:38;;;;;;;11.40;2.57;;;;;;;11.24;72.90;99541.72;5116005;27;41824;-85
2023/01/05 17:03:49;;;;;;;6.80;2.30;;;;;;;11.05;72.65;99516.19;5116498;27;41421;-85
2023/01/05 17:06:33;;;;;;;10.13;2.63;;;;;;;11.06;73.29;99536.44;5133336;27;40329;-84
2023/01/05 17:09:41;;;;;;;7.37;2.23;;;;;;;10.91;73.72;99524.00;5115338;27;43223;-85
2023/01/05 17:12:13;;;;;;;10.27;2.23;;;;;;;10.95;73.77;99530.88;5115828;27;43224;-85
2023/01/05 17:21:02;;;;;;;6.20;2.20;;;;;;;10.76;74.53;99525.66;5144380;27;42488;-85
2023/01/05 17:24:11;;;;;;;6.80;2.27;;;;;;;10.72;74.45;99533.88;5117430;27;41602;-86
2023/01/05 17:27:02;;;;;;;8.53;2.93;;;;;;;10.50;75.22;99496.22;5119548;27;41404;-85
2023/01/05 17:29:49;;;;;;;10.60;2.80;;;;;;;10.45;75.47;99499.09;5118857;27;38804;-85
2023/01/05 17:35:47;;;;;;;8.07;2.60;;;;;;;10.57;76.09;99521.41;5150394;27;43247;-85
2023/01/05 17:38:15;;;;;;;11.27;3.70;;;;;;;10.50;75.82;99522.69;5093076;28;40791;-86
2023/01/05 17:41:04;;;;;;;8.40;4.07;;;;;;;10.39;75.96;99500.25;5095483;28;39077;-85
2023/01/05 17:43:56;;;;;;;12.73;4.40;;;;;;;10.42;75.72;99510.69;5094953;28;41217;-85
